createdAt,value
2022-11-25T00:01:34.595Z,14.90
2022-11-25T00:04:03.179Z,14.07
2022-11-25T00:06:33.425Z,13.97
2022-11-25T00:09:03.293Z,14.30
2022-11-25T00:11:31.742Z,14.77
2022-11-25T00:13:59.797Z,15.93
2022-11-25T00:16:29.392Z,15.50
2022-11-25T00:18:58.814Z,15.93
2022-11-25T00:21:28.844Z,15.37
2022-11-25T00:23:58.323Z,15.67
2022-11-25T00:26:27.464Z,16.37
2022-11-25T00:28:57.847Z,16.77
2022-11-25T00:31:28.921Z,16.03
2022-11-25T00:33:59.749Z,15.67
2022-11-25T00:36:31.008Z,16.87
2022-11-25T00:39:00.707Z,17.57
2022-11-25T00:41:47.113Z,17.27
2022-11-25T00:44:35.193Z,16.63
2022-11-25T00:47:05.271Z,17.20
2022-11-25T00:49:33.820Z,17.00
2022-11-25T00:52:02.308Z,17.10
2022-11-25T00:54:30.343Z,16.03
2022-11-25T00:56:58.959Z,18.83
2022-11-25T00:59:28.914Z,18.93
2022-11-25T01:01:57.125Z,19.07
2022-11-25T01:04:27.227Z,19.37
2022-11-25T01:06:57.020Z,17.97
2022-11-25T01:09:25.208Z,18.10
2022-11-25T01:11:53.636Z,17.47
2022-11-25T01:14:23.155Z,19.37
2022-11-25T01:16:51.589Z,18.23
2022-11-25T01:19:20.707Z,17.60
2022-11-25T01:21:50.217Z,17.60
2022-11-25T01:24:19.452Z,18.43
2022-11-25T01:26:47.480Z,18.03
2022-11-25T01:29:17.732Z,19.00
2022-11-25T01:31:49.472Z,17.67
2022-11-25T01:34:19.907Z,16.67
2022-11-25T01:36:49.342Z,17.77
2022-11-25T01:39:19.421Z,17.33
2022-11-25T01:41:48.510Z,16.70
2022-11-25T01:44:18.178Z,16.60
2022-11-25T01:47:06.563Z,17.47
2022-11-25T01:49:40.893Z,17.93
2022-11-25T01:52:16.470Z,16.70
2022-11-25T01:54:50.869Z,17.97
2022-11-25T01:57:26.182Z,16.17
2022-11-25T01:59:58.770Z,16.70
2022-11-25T02:02:27.220Z,16.57
2022-11-25T02:04:55.127Z,17.83
2022-11-25T02:07:32.289Z,17.37
2022-11-25T02:10:03.007Z,16.07
2022-11-25T02:12:32.203Z,17.23
2022-11-25T02:15:00.574Z,16.47
2022-11-25T02:17:28.685Z,16.30
2022-11-25T02:20:03.044Z,15.80
2022-11-25T02:22:43.186Z,16.13
2022-11-25T02:25:16.684Z,16.83
2022-11-25T02:27:47.590Z,17.07
2022-11-25T02:30:15.973Z,16.43
2022-11-25T02:32:47.502Z,16.90
2022-11-25T02:35:37.970Z,16.83
2022-11-25T02:38:10.212Z,16.53
2022-11-25T02:40:45.541Z,15.93
2022-11-25T02:43:13.745Z,15.93
2022-11-25T02:46:03.576Z,15.70
2022-11-25T02:49:06.916Z,16.30
2022-11-25T02:51:24.555Z,17.10
2022-11-25T02:53:53.120Z,17.27
2022-11-25T02:56:26.329Z,17.27
2022-11-25T02:58:54.489Z,16.33
2022-11-25T03:01:23.167Z,17.27
2022-11-25T03:03:51.164Z,17.10
2022-11-25T03:06:19.439Z,16.77
2022-11-25T03:08:47.389Z,17.50
2022-11-25T03:11:15.812Z,17.40
2022-11-25T03:13:45.303Z,18.23
2022-11-25T03:16:13.306Z,16.97
2022-11-25T03:18:41.255Z,17.53
2022-11-25T03:21:09.289Z,17.90
2022-11-25T03:23:37.144Z,18.07
2022-11-25T03:26:07.231Z,17.77
2022-11-25T03:28:35.218Z,17.43
2022-11-25T03:31:04.517Z,17.90
2022-11-25T03:33:32.408Z,17.73
2022-11-25T03:36:00.278Z,17.43
2022-11-25T03:38:28.332Z,18.27
2022-11-25T03:40:56.200Z,18.33
2022-11-25T03:43:24.098Z,17.20
2022-11-25T03:45:52.143Z,18.03
2022-11-25T03:48:21.653Z,17.73
2022-11-25T03:50:49.827Z,18.10
2022-11-25T03:53:17.780Z,18.33
2022-11-25T03:55:48.446Z,18.10
2022-11-25T03:58:16.542Z,18.33
2022-11-25T04:00:44.411Z,15.90
2022-11-25T04:03:12.283Z,16.70
2022-11-25T04:05:42.602Z,15.73
2022-11-25T04:08:10.713Z,15.90
2022-11-25T04:10:38.698Z,16.13
2022-11-25T04:13:05.680Z,15.30
2022-11-25T04:15:33.585Z,17.03
2022-11-25T04:18:01.562Z,14.87
2022-11-25T04:20:29.590Z,16.03
2022-11-25T04:22:58.878Z,14.73
2022-11-25T04:25:26.927Z,14.03
2022-11-25T04:27:54.977Z,15.33
2022-11-25T04:30:22.859Z,13.57
2022-11-25T04:32:50.871Z,14.50
2022-11-25T04:35:18.999Z,14.60
2022-11-25T04:37:47.093Z,13.50
2022-11-25T04:40:16.882Z,12.97
2022-11-25T04:42:44.957Z,13.67
2022-11-25T04:45:22.907Z,13.87
2022-11-25T04:47:51.667Z,12.67
2022-11-25T04:50:22.830Z,12.50
2022-11-25T04:52:51.170Z,12.23
2022-11-25T04:55:21.077Z,11.63
2022-11-25T04:57:49.049Z,12.63
2022-11-25T05:00:16.760Z,12.70
2022-11-25T05:02:44.932Z,11.87
2022-11-25T05:05:14.035Z,11.40
2022-11-25T05:07:42.539Z,12.03
2022-11-25T05:10:10.940Z,12.90
2022-11-25T05:12:40.462Z,12.27
2022-11-25T05:15:10.117Z,11.70
2022-11-25T05:17:38.984Z,12.57
2022-11-25T05:20:08.676Z,12.23
2022-11-25T05:22:37.137Z,14.60
2022-11-25T05:25:06.868Z,12.13
2022-11-25T05:27:35.017Z,12.93
2022-11-25T05:30:04.949Z,11.77
2022-11-25T05:32:33.056Z,12.93
2022-11-25T05:35:00.999Z,13.00
2022-11-25T05:37:29.092Z,13.17
2022-11-25T05:39:57.227Z,12.57
2022-11-25T05:42:25.221Z,12.07
2022-11-25T05:44:53.484Z,11.33
2022-11-25T05:47:22.807Z,11.30
2022-11-25T05:49:50.814Z,11.47
2022-11-25T05:52:19.014Z,11.03
2022-11-25T05:54:46.914Z,11.23
2022-11-25T05:57:14.872Z,11.27
2022-11-25T05:59:43.396Z,10.77
2022-11-25T06:02:11.559Z,9.73
2022-11-25T06:04:41.187Z,11.00
2022-11-25T06:07:09.460Z,10.80
2022-11-25T06:09:37.453Z,10.70
2022-11-25T06:12:05.718Z,10.30
2022-11-25T06:14:34.144Z,9.70
2022-11-25T06:17:02.284Z,9.20
2022-11-25T06:19:30.269Z,9.63
2022-11-25T06:21:59.594Z,9.13
2022-11-25T06:24:27.518Z,9.73
2022-11-25T06:26:55.386Z,9.90
2022-11-25T06:29:23.358Z,9.20
2022-11-25T06:31:51.430Z,9.43
2022-11-25T06:34:19.336Z,10.00
2022-11-25T06:36:47.321Z,9.83
2022-11-25T06:39:16.600Z,10.33
2022-11-25T06:41:44.518Z,10.27
2022-11-25T06:44:12.515Z,10.77
2022-11-25T06:46:40.541Z,10.10
2022-11-25T06:49:08.433Z,15.87
2022-11-25T06:51:36.495Z,10.87
2022-11-25T06:54:04.442Z,10.30
2022-11-25T06:56:33.707Z,10.47
2022-11-25T06:59:01.552Z,9.97
2022-11-25T07:01:30.684Z,10.00
2022-11-25T07:04:01.525Z,9.00
2022-11-25T07:06:29.489Z,10.23
2022-11-25T07:08:58.214Z,10.80
2022-11-25T07:11:29.194Z,10.93
2022-11-25T07:14:00.948Z,9.77
2022-11-25T07:16:29.734Z,9.50
2022-11-25T07:18:57.853Z,8.40
2022-11-25T07:21:26.587Z,9.47
2022-11-25T07:23:55.023Z,9.40
2022-11-25T07:26:24.821Z,8.67
2022-11-25T07:28:55.980Z,8.60
2022-11-25T07:31:31.505Z,8.33
2022-11-25T07:34:02.567Z,7.80
2022-11-25T07:36:32.124Z,8.30
2022-11-25T07:39:01.598Z,7.67
2022-11-25T07:41:31.015Z,7.53
2022-11-25T07:44:00.888Z,7.67
2022-11-25T07:46:32.259Z,6.80
2022-11-25T07:49:03.684Z,7.10
2022-11-25T07:51:34.150Z,7.30
2022-11-25T07:54:03.914Z,7.87
2022-11-25T07:56:32.504Z,7.77
2022-11-25T07:59:00.573Z,8.03
2022-11-25T08:01:28.907Z,7.90
2022-11-25T08:03:58.273Z,8.07
2022-11-25T08:06:28.285Z,8.00
2022-11-25T08:08:58.452Z,7.73
2022-11-25T08:11:27.718Z,7.20
2022-11-25T08:13:55.951Z,7.00
2022-11-25T08:16:26.406Z,6.97
2022-11-25T08:18:55.497Z,7.00
2022-11-25T08:21:25.467Z,7.03
2022-11-25T08:23:53.525Z,6.70
2022-11-25T08:26:24.399Z,7.37
2022-11-25T08:28:52.465Z,7.60
2022-11-25T08:31:23.011Z,6.90
2022-11-25T08:33:52.339Z,6.57
2022-11-25T08:36:21.500Z,6.93
2022-11-25T08:38:52.836Z,7.10
2022-11-25T08:41:23.676Z,7.00
2022-11-25T08:43:51.913Z,7.37
2022-11-25T08:46:22.603Z,7.43
2022-11-25T08:48:50.929Z,8.03
2022-11-25T08:51:21.790Z,7.00
2022-11-25T08:53:52.314Z,7.13
2022-11-25T08:56:25.983Z,7.00
2022-11-25T08:58:55.126Z,7.53
2022-11-25T09:01:25.104Z,7.33
2022-11-25T09:03:55.699Z,7.50
2022-11-25T09:06:24.382Z,7.07
2022-11-25T09:08:56.626Z,7.60
2022-11-25T09:11:24.838Z,6.10
2022-11-25T09:13:52.803Z,6.77
2022-11-25T09:16:23.337Z,6.63
2022-11-25T09:18:55.810Z,5.93
2022-11-25T09:21:25.460Z,6.53
2022-11-25T09:23:55.796Z,6.40
2022-11-25T09:26:25.731Z,6.83
2022-11-25T09:28:53.993Z,7.07
2022-11-25T09:31:22.697Z,6.70
2022-11-25T09:33:51.129Z,6.93
2022-11-25T09:36:20.367Z,6.30
2022-11-25T09:38:48.571Z,6.80
2022-11-25T09:41:52.240Z,6.63
2022-11-25T09:44:53.134Z,6.17
2022-11-25T09:47:31.872Z,8.97
2022-11-25T09:50:12.067Z,7.13
2022-11-25T09:52:51.473Z,7.30
2022-11-25T09:55:22.007Z,7.27
2022-11-25T09:58:02.902Z,7.63
2022-11-25T10:00:39.126Z,7.67
2022-11-25T10:03:15.508Z,7.50
2022-11-25T10:05:48.361Z,7.13
2022-11-25T10:08:20.845Z,6.93
2022-11-25T10:10:51.114Z,7.10
2022-11-25T10:13:26.220Z,7.37
2022-11-25T10:16:00.300Z,7.17
2022-11-25T10:18:34.689Z,6.97
2022-11-25T10:21:02.755Z,7.23
2022-11-25T10:23:35.812Z,6.80
2022-11-25T10:26:13.920Z,6.63
2022-11-25T10:28:52.272Z,8.00
2022-11-25T10:31:22.138Z,6.77
2022-11-25T10:33:53.192Z,6.80
2022-11-25T10:36:24.255Z,6.90
2022-11-25T10:38:58.485Z,6.37
2022-11-25T10:41:30.961Z,6.97
2022-11-25T10:44:00.505Z,7.00
2022-11-25T10:46:56.980Z,6.80
2022-11-25T10:49:30.803Z,6.57
2022-11-25T10:51:59.003Z,8.03
2022-11-25T10:54:28.392Z,7.63
2022-11-25T10:56:58.545Z,7.50
2022-11-25T10:59:32.019Z,7.33
2022-11-25T11:02:20.396Z,6.70
2022-11-25T11:04:55.615Z,7.07
2022-11-25T11:07:25.103Z,6.90
2022-11-25T11:09:53.887Z,6.83
2022-11-25T11:12:24.931Z,6.80
2022-11-25T11:14:56.108Z,7.07
2022-11-25T11:17:36.348Z,6.97
2022-11-25T11:20:17.773Z,6.70
2022-11-25T11:22:55.449Z,6.87
2022-11-25T11:25:35.033Z,6.93
2022-11-25T11:28:05.807Z,6.90
2022-11-25T11:30:36.423Z,7.47
2022-11-25T11:33:08.535Z,7.10
2022-11-25T11:35:58.440Z,7.13
2022-11-25T11:38:34.105Z,7.40
2022-11-25T11:41:15.035Z,7.47
2022-11-25T11:43:58.540Z,7.97
2022-11-25T11:46:42.751Z,8.30
2022-11-25T11:49:33.769Z,7.87
2022-11-25T11:52:10.666Z,7.43
2022-11-25T11:54:45.767Z,7.27
2022-11-25T11:57:22.993Z,7.60
2022-11-25T11:59:53.954Z,8.83
2022-11-25T12:02:41.685Z,7.77
2022-11-25T12:05:17.016Z,8.17
2022-11-25T12:07:53.216Z,9.07
2022-11-25T12:10:27.165Z,8.40
2022-11-25T12:13:05.911Z,8.90
2022-11-25T12:15:43.464Z,8.33
2022-11-25T12:18:21.090Z,8.63
2022-11-25T12:20:56.758Z,8.07
2022-11-25T12:23:36.138Z,8.20
2022-11-25T12:26:09.420Z,7.50
2022-11-25T12:28:41.554Z,7.30
2022-11-25T12:31:18.380Z,7.13
2022-11-25T12:33:57.774Z,7.37
2022-11-25T12:36:32.606Z,8.03
2022-11-25T12:39:04.092Z,8.00
2022-11-25T12:41:41.690Z,7.77
2022-11-25T12:44:15.981Z,7.83
2022-11-25T12:46:47.713Z,7.90
2022-11-25T12:49:21.070Z,7.97
2022-11-25T12:52:12.397Z,8.80
2022-11-25T12:55:04.165Z,8.07
2022-11-25T12:58:10.809Z,7.40
2022-11-25T13:01:01.963Z,7.87
2022-11-25T13:04:14.013Z,7.57
2022-11-25T13:07:08.784Z,7.53
2022-11-25T13:10:25.586Z,7.50
2022-11-25T13:13:17.755Z,7.17
2022-11-25T13:15:48.415Z,7.17
2022-11-25T13:18:20.869Z,7.00
2022-11-25T13:20:51.042Z,7.03
2022-11-25T13:23:30.401Z,7.60
2022-11-25T13:26:37.158Z,7.43
2022-11-25T13:30:02.298Z,6.97
2022-11-25T13:32:42.480Z,7.00
2022-11-25T13:35:49.339Z,7.20
2022-11-25T13:38:59.186Z,6.70
2022-11-25T13:41:41.514Z,7.00
2022-11-25T13:44:20.061Z,7.17
2022-11-25T13:46:51.513Z,7.80
2022-11-25T13:49:34.831Z,7.80
2022-11-25T13:52:05.558Z,7.03
2022-11-25T13:54:40.617Z,7.53
2022-11-25T13:57:27.597Z,7.70
2022-11-25T13:59:59.188Z,8.23
2022-11-25T14:02:38.247Z,7.73
2022-11-25T14:05:26.097Z,7.70
2022-11-25T14:08:08.324Z,7.37
2022-11-25T14:10:46.271Z,7.10
2022-11-25T14:13:35.795Z,7.40
2022-11-25T14:16:21.916Z,7.10
2022-11-25T14:22:08.713Z,7.57
2022-11-25T14:24:39.828Z,6.77
2022-11-25T14:27:16.974Z,6.90
2022-11-25T14:29:48.042Z,6.97
2022-11-25T14:32:21.362Z,6.30
2022-11-25T14:34:54.114Z,7.00
2022-11-25T14:37:28.699Z,7.67
2022-11-25T14:39:59.850Z,7.10
2022-11-25T14:42:34.446Z,7.27
2022-11-25T14:45:03.261Z,7.27
2022-11-25T14:47:37.592Z,7.73
2022-11-25T14:53:02.249Z,7.90
2022-11-25T14:55:32.412Z,8.17
2022-11-25T14:58:01.796Z,7.73
2022-11-25T15:00:30.007Z,8.50
2022-11-25T15:03:00.933Z,8.93
2022-11-25T15:05:34.070Z,9.07
2022-11-25T15:08:05.534Z,8.10
2022-11-25T15:10:42.365Z,7.70
2022-11-25T15:13:26.088Z,8.47
2022-11-25T15:15:55.993Z,8.00
2022-11-25T15:18:26.311Z,7.97
2022-11-25T15:20:58.966Z,8.40
2022-11-25T15:23:32.021Z,8.50
2022-11-25T15:26:01.302Z,7.87
2022-11-25T15:28:36.783Z,8.23
2022-11-25T15:31:10.614Z,8.20
2022-11-25T15:33:39.658Z,8.60
2022-11-25T15:36:08.082Z,8.03
2022-11-25T15:38:39.256Z,7.73
2022-11-25T15:41:14.998Z,8.57
2022-11-25T15:43:47.499Z,8.37
2022-11-25T15:46:16.302Z,8.37
2022-11-25T15:48:46.930Z,8.60
2022-11-25T15:51:25.870Z,8.60
2022-11-25T15:53:56.628Z,8.50
2022-11-25T15:56:27.407Z,9.07
2022-11-25T15:59:01.525Z,9.77
2022-11-25T16:01:30.943Z,10.97
2022-11-25T16:04:25.581Z,12.97
2022-11-25T16:06:55.262Z,13.43
2022-11-25T16:09:25.540Z,13.13
2022-11-25T16:11:53.644Z,13.63
2022-11-25T16:14:27.991Z,13.83
2022-11-25T16:17:02.614Z,13.83
2022-11-25T16:19:37.983Z,13.77
2022-11-25T16:22:06.861Z,13.83
2022-11-25T16:24:50.765Z,13.27
2022-11-25T16:27:24.664Z,12.60
2022-11-25T16:29:56.947Z,13.23
2022-11-25T16:32:27.110Z,13.30
2022-11-25T16:34:58.431Z,12.63
2022-11-25T16:37:26.381Z,12.07
2022-11-25T16:39:54.327Z,12.97
2022-11-25T16:42:23.577Z,11.57
2022-11-25T16:44:53.432Z,11.60
2022-11-25T16:47:24.325Z,11.17
2022-11-25T16:49:53.103Z,10.23
2022-11-25T16:52:20.993Z,10.87
2022-11-25T16:54:49.116Z,11.47
2022-11-25T16:57:21.882Z,11.40
2022-11-25T16:59:55.911Z,11.83
2022-11-25T17:02:28.410Z,10.93
2022-11-25T17:04:58.192Z,10.43
2022-11-25T17:07:34.423Z,10.83
2022-11-25T17:10:15.623Z,11.47
2022-11-25T17:12:53.991Z,10.73
2022-11-25T17:15:30.237Z,11.80
2022-11-25T17:18:00.539Z,10.50
2022-11-25T17:20:28.740Z,11.87
2022-11-25T17:22:57.362Z,12.77
2022-11-25T17:25:33.673Z,11.90
2022-11-25T17:28:05.225Z,12.87
2022-11-25T17:30:33.602Z,14.17
2022-11-25T17:33:05.863Z,13.40
2022-11-25T17:35:34.055Z,14.10
2022-11-25T17:38:02.719Z,14.20
2022-11-25T17:40:31.008Z,14.53
2022-11-25T17:42:59.011Z,14.23
2022-11-25T17:45:27.146Z,15.97
2022-11-25T17:47:55.251Z,15.97
2022-11-25T17:50:26.951Z,15.00
2022-11-25T17:52:55.709Z,15.30
2022-11-25T17:55:24.774Z,15.07
2022-11-25T17:57:53.398Z,14.33
2022-11-25T18:00:23.671Z,13.53
2022-11-25T18:02:52.442Z,14.63
2022-11-25T18:05:22.794Z,15.00
2022-11-25T18:07:52.667Z,14.70
2022-11-25T18:10:23.876Z,14.03
2022-11-25T18:12:54.367Z,13.90
2022-11-25T18:15:25.160Z,14.73
2022-11-25T18:18:03.461Z,14.10
2022-11-25T18:20:33.166Z,13.97
2022-11-25T18:23:02.771Z,14.03
2022-11-25T18:25:33.066Z,13.80
2022-11-25T18:28:02.246Z,14.97
2022-11-25T18:30:33.579Z,15.37
2022-11-25T18:33:01.962Z,17.03
2022-11-25T18:35:36.164Z,16.57
2022-11-25T18:38:06.937Z,17.13
2022-11-25T18:40:37.187Z,16.67
2022-11-25T18:43:06.474Z,17.03
2022-11-25T18:45:38.109Z,17.50
2022-11-25T18:48:14.762Z,16.97
2022-11-25T18:51:11.422Z,17.37
2022-11-25T18:53:43.548Z,17.70
2022-11-25T18:56:33.410Z,17.13
2022-11-25T18:59:15.216Z,17.63
2022-11-25T19:01:59.997Z,17.70
2022-11-25T19:04:28.692Z,18.93
2022-11-25T19:06:56.750Z,18.47
2022-11-25T19:09:26.207Z,18.13
2022-11-25T19:11:55.550Z,17.57
2022-11-25T19:14:30.406Z,16.97
2022-11-25T19:17:02.460Z,17.63
2022-11-25T19:19:31.052Z,17.13
2022-11-25T19:22:01.501Z,18.00
2022-11-25T19:24:30.959Z,17.33
2022-11-25T19:26:59.218Z,17.70
2022-11-25T19:29:38.805Z,19.17
2022-11-25T19:32:18.392Z,17.93
2022-11-25T19:34:49.563Z,16.77
2022-11-25T19:37:20.581Z,15.80
2022-11-25T19:39:50.978Z,16.87
2022-11-25T19:42:19.304Z,17.87
2022-11-25T19:44:48.041Z,20.20
2022-11-25T19:47:21.037Z,16.90
2022-11-25T19:49:50.998Z,16.80
2022-11-25T19:52:22.227Z,15.23
2022-11-25T19:54:52.398Z,16.23
2022-11-25T19:57:23.232Z,15.77
2022-11-25T19:59:54.745Z,15.17
2022-11-25T20:02:25.376Z,16.97
2022-11-25T20:04:56.405Z,16.70
2022-11-25T20:07:25.045Z,16.60
2022-11-25T20:09:56.533Z,16.07
2022-11-25T20:12:29.337Z,16.53
2022-11-25T20:14:58.001Z,16.90
2022-11-25T20:17:29.078Z,16.17
2022-11-25T20:20:00.142Z,15.87
2022-11-25T20:22:32.760Z,15.27
2022-11-25T20:25:05.458Z,15.53
2022-11-25T20:27:34.345Z,16.87
2022-11-25T20:30:02.182Z,15.13
2022-11-25T20:32:34.073Z,14.37
2022-11-25T20:35:02.277Z,14.03
2022-11-25T20:37:40.526Z,13.90
2022-11-25T20:40:18.770Z,13.90
2022-11-25T20:42:47.121Z,13.50
2022-11-25T20:45:16.494Z,14.37
2022-11-25T20:47:44.901Z,13.63
2022-11-25T20:50:14.887Z,13.80
2022-11-25T20:52:43.756Z,13.90
2022-11-25T20:55:19.276Z,15.47
2022-11-25T20:57:47.932Z,13.77
2022-11-25T21:00:19.188Z,13.90
2022-11-25T21:02:47.630Z,14.30
2022-11-25T21:05:19.574Z,12.77
2022-11-25T21:07:48.777Z,12.13
2022-11-25T21:10:27.505Z,12.30
2022-11-25T21:12:56.880Z,13.13
2022-11-25T21:15:27.700Z,13.03
2022-11-25T21:17:57.607Z,12.97
2022-11-25T21:20:25.802Z,12.30
2022-11-25T21:22:57.985Z,11.80
2022-11-25T21:25:27.499Z,13.50
2022-11-25T21:27:55.766Z,12.57
2022-11-25T21:30:25.894Z,11.97
2022-11-25T21:32:58.225Z,12.00
2022-11-25T21:35:31.748Z,12.30
2022-11-25T21:38:00.158Z,12.80
2022-11-25T21:40:38.324Z,11.87
2022-11-25T21:43:18.417Z,10.87
2022-11-25T21:45:50.484Z,10.83
2022-11-25T21:48:21.488Z,10.40
2022-11-25T21:50:49.952Z,11.07
2022-11-25T21:53:18.240Z,11.80
2022-11-25T21:55:48.463Z,11.23
2022-11-25T21:58:18.844Z,10.77
2022-11-25T22:00:51.004Z,10.47
2022-11-25T22:03:21.409Z,10.50
2022-11-25T22:05:50.202Z,9.20
2022-11-25T22:08:18.698Z,10.00
2022-11-25T22:10:56.391Z,9.77
2022-11-25T22:13:30.613Z,9.57
2022-11-25T22:16:00.357Z,8.27
2022-11-25T22:18:34.792Z,7.90
2022-11-25T22:21:03.917Z,8.50
2022-11-25T22:23:33.883Z,9.17
2022-11-25T22:26:05.723Z,8.10
2022-11-25T22:28:33.776Z,7.80
2022-11-25T22:31:06.235Z,8.60
2022-11-25T22:33:36.518Z,9.20
2022-11-25T22:36:05.220Z,8.77
2022-11-25T22:38:33.423Z,8.50
2022-11-25T22:41:07.356Z,7.40
2022-11-25T22:43:40.241Z,7.23
2022-11-25T22:46:08.247Z,7.30
2022-11-25T22:48:38.377Z,7.30
2022-11-25T22:51:10.141Z,7.20
2022-11-25T22:53:39.168Z,8.23
2022-11-25T22:56:17.432Z,8.40
2022-11-25T22:58:45.857Z,7.03
2022-11-25T23:01:15.468Z,8.10
2022-11-25T23:03:45.747Z,7.07
2022-11-25T23:06:14.656Z,8.07
2022-11-25T23:08:42.585Z,7.33
2022-11-25T23:11:19.178Z,7.47
2022-11-25T23:13:48.706Z,8.00
2022-11-25T23:16:17.595Z,7.43
2022-11-25T23:18:47.662Z,8.10
2022-11-25T23:21:18.897Z,7.47
2022-11-25T23:23:47.088Z,7.13
2022-11-25T23:26:16.831Z,7.13
2022-11-25T23:28:44.771Z,7.33
2022-11-25T23:31:14.674Z,7.67
2022-11-25T23:33:46.292Z,7.50
2022-11-25T23:36:16.685Z,7.63
2022-11-25T23:38:50.902Z,6.77
2022-11-25T23:41:22.169Z,6.70
2022-11-25T23:43:50.753Z,7.50
2022-11-25T23:46:22.311Z,7.23
2022-11-25T23:48:55.994Z,7.53
2022-11-25T23:51:25.058Z,7.33
2022-11-25T23:53:53.586Z,7.33
2022-11-25T23:56:23.297Z,7.07
2022-11-25T23:58:51.612Z,6.87
